createdAt,value
2019-03-21T00:01:59.860Z,81.00
2019-03-21T00:04:40.022Z,81.10
2019-03-21T00:07:20.094Z,80.20
2019-03-21T00:10:00.332Z,79.90
2019-03-21T00:12:40.115Z,80.40
2019-03-21T00:15:20.415Z,80.80
2019-03-21T00:18:01.652Z,81.00
2019-03-21T00:20:41.515Z,80.70
2019-03-21T00:23:21.773Z,81.00
2019-03-21T00:26:01.812Z,81.20
2019-03-21T00:28:42.087Z,81.20
2019-03-21T00:31:23.238Z,80.60
2019-03-21T00:34:04.066Z,80.70
2019-03-21T00:36:44.281Z,80.80
2019-03-21T00:39:32.449Z,81.00
2019-03-21T00:42:06.443Z,81.10
2019-03-21T00:44:46.447Z,81.10
2019-03-21T00:47:26.444Z,81.50
2019-03-21T00:50:06.714Z,81.70
2019-03-21T00:52:46.485Z,81.80
2019-03-21T00:55:26.214Z,81.80
2019-03-21T00:58:06.340Z,82.60
2019-03-21T01:00:46.741Z,83.00
2019-03-21T01:03:27.139Z,83.20
2019-03-21T01:06:07.098Z,83.60
2019-03-21T01:08:46.701Z,84.50
2019-03-21T01:11:26.967Z,84.80
2019-03-21T01:14:07.067Z,84.60
2019-03-21T01:16:47.429Z,84.00
2019-03-21T01:19:27.847Z,83.10
2019-03-21T01:22:08.395Z,81.80
2019-03-21T01:24:48.364Z,81.60
2019-03-21T01:27:28.571Z,82.00
2019-03-21T01:30:08.911Z,82.20
2019-03-21T01:32:49.437Z,82.10
2019-03-21T01:35:33.500Z,81.90
2019-03-21T01:38:13.569Z,81.60
2019-03-21T01:40:53.700Z,81.30
2019-03-21T01:43:33.548Z,81.20
2019-03-21T01:46:13.637Z,81.30
2019-03-21T01:48:53.715Z,81.10
2019-03-21T01:51:34.003Z,81.00
2019-03-21T01:54:15.769Z,81.50
2019-03-21T01:56:44.259Z,81.90
2019-03-21T01:59:31.368Z,81.80
2019-03-21T02:02:11.260Z,81.90
2019-03-21T02:04:52.143Z,82.00
2019-03-21T02:10:16.739Z,82.10
2019-03-21T02:12:56.990Z,82.50
2019-03-21T02:15:36.692Z,82.50
2019-03-21T02:18:16.704Z,83.00
2019-03-21T02:20:57.139Z,83.20
2019-03-21T02:23:37.287Z,83.70
2019-03-21T02:26:17.168Z,83.90
2019-03-21T02:28:57.155Z,83.90
2019-03-21T02:31:37.499Z,83.50
2019-03-21T02:34:17.284Z,83.80
2019-03-21T02:36:57.455Z,83.50
2019-03-21T02:39:37.641Z,83.70
2019-03-21T02:45:08.997Z,84.50
2019-03-21T02:47:46.065Z,84.80
2019-03-21T02:50:26.339Z,84.70
2019-03-21T02:53:06.496Z,84.80
2019-03-21T02:55:46.549Z,85.10
2019-03-21T02:58:24.918Z,85.20
2019-03-21T03:01:11.905Z,85.40
2019-03-21T03:03:53.861Z,85.20
2019-03-21T03:06:34.896Z,85.20
2019-03-21T03:09:15.027Z,85.50
2019-03-21T03:11:54.808Z,85.50
2019-03-21T03:14:34.989Z,86.00
2019-03-21T03:17:15.444Z,86.50
2019-03-21T03:19:55.364Z,86.80
2019-03-21T03:22:35.438Z,86.60
2019-03-21T03:25:15.322Z,86.90
2019-03-21T03:27:55.547Z,87.00
2019-03-21T03:30:35.629Z,87.10
2019-03-21T03:33:15.688Z,87.30
2019-03-21T03:35:56.008Z,87.10
2019-03-21T03:38:36.024Z,87.40
2019-03-21T03:41:16.289Z,87.50
2019-03-21T03:43:56.340Z,87.30
2019-03-21T03:46:36.744Z,87.40
2019-03-21T03:49:16.736Z,87.50
2019-03-21T03:51:57.095Z,87.40
2019-03-21T03:54:36.713Z,87.50
2019-03-21T03:57:20.391Z,87.40
2019-03-21T04:00:00.423Z,87.60
2019-03-21T04:02:41.086Z,87.50
2019-03-21T04:05:20.915Z,87.40
2019-03-21T04:08:01.016Z,87.20
2019-03-21T04:10:40.580Z,87.20
2019-03-21T04:13:20.763Z,87.10
2019-03-21T04:16:01.124Z,86.90
2019-03-21T04:18:40.909Z,86.80
2019-03-21T04:21:20.998Z,86.60
2019-03-21T04:24:04.143Z,86.40
2019-03-21T04:26:44.620Z,86.40
2019-03-21T04:29:24.398Z,86.90
2019-03-21T04:32:04.705Z,86.90
2019-03-21T04:34:45.138Z,86.90
2019-03-21T04:37:25.186Z,86.90
2019-03-21T04:40:05.119Z,86.90
2019-03-21T04:42:44.899Z,87.00
2019-03-21T04:45:25.608Z,86.40
2019-03-21T04:48:05.405Z,86.30
2019-03-21T04:50:46.216Z,86.30
2019-03-21T04:53:27.135Z,86.00
2019-03-21T04:56:07.449Z,86.00
2019-03-21T04:58:47.655Z,86.20
2019-03-21T05:01:28.018Z,86.30
2019-03-21T05:04:07.985Z,86.50
2019-03-21T05:06:48.543Z,87.00
2019-03-21T05:09:28.575Z,86.90
2019-03-21T05:12:08.424Z,87.10
2019-03-21T05:14:48.752Z,87.60
2019-03-21T05:17:28.806Z,87.70
2019-03-21T05:20:08.689Z,87.30
2019-03-21T05:22:48.846Z,87.10
2019-03-21T05:25:29.326Z,87.60
2019-03-21T05:28:09.102Z,88.00
2019-03-21T05:30:48.978Z,88.50
2019-03-21T05:33:29.207Z,88.80
2019-03-21T05:36:08.990Z,88.90
2019-03-21T05:38:49.415Z,88.80
2019-03-21T05:41:29.393Z,88.90
2019-03-21T05:44:09.152Z,88.80
2019-03-21T05:46:49.322Z,88.80
2019-03-21T05:49:29.427Z,88.70
2019-03-21T05:52:09.932Z,88.50
2019-03-21T05:54:49.741Z,87.90
2019-03-21T05:57:29.625Z,87.80
2019-03-21T06:00:09.908Z,87.50
2019-03-21T06:02:49.811Z,87.80
2019-03-21T06:05:29.930Z,86.80
2019-03-21T06:08:09.545Z,85.90
2019-03-21T06:10:49.587Z,85.00
2019-03-21T06:13:29.656Z,84.70
2019-03-21T06:16:18.268Z,83.30
2019-03-21T06:19:07.707Z,82.90
2019-03-21T06:21:47.986Z,81.80
2019-03-21T06:24:27.739Z,81.40
2019-03-21T06:27:14.379Z,79.90
2019-03-21T06:29:52.223Z,79.20
2019-03-21T06:32:20.260Z,79.20
2019-03-21T06:34:48.186Z,77.90
2019-03-21T06:37:28.847Z,77.90
2019-03-21T06:40:09.184Z,77.90
2019-03-21T06:45:29.181Z,77.70
2019-03-21T06:48:09.356Z,77.30
2019-03-21T06:53:58.535Z,74.70
2019-03-21T06:56:38.698Z,72.80
2019-03-21T06:59:18.649Z,69.60
2019-03-21T07:01:58.661Z,68.40
2019-03-21T07:04:38.448Z,67.20
2019-03-21T07:07:19.091Z,66.40
2019-03-21T07:09:59.044Z,67.70
2019-03-21T07:12:39.137Z,67.90
2019-03-21T07:18:02.305Z,66.90
2019-03-21T07:20:30.627Z,65.80
2019-03-21T07:23:17.511Z,65.30
2019-03-21T07:25:58.550Z,64.50
2019-03-21T07:28:38.683Z,63.20
2019-03-21T07:31:18.761Z,61.40
2019-03-21T07:33:58.668Z,60.60
2019-03-21T07:36:38.578Z,58.80
2019-03-21T07:39:18.610Z,58.00
2019-03-21T07:41:46.385Z,56.30
2019-03-21T07:44:33.653Z,54.60
2019-03-21T07:47:14.119Z,52.70
2019-03-21T07:49:54.617Z,51.90
2019-03-21T07:52:34.627Z,51.90
2019-03-21T07:55:15.085Z,52.30
2019-03-21T07:57:43.825Z,53.20
2019-03-21T08:00:30.834Z,53.40
2019-03-21T08:03:10.606Z,53.30
2019-03-21T08:05:50.794Z,52.90
2019-03-21T08:08:32.348Z,52.50
2019-03-21T08:11:12.996Z,50.70
2019-03-21T08:13:53.869Z,48.90
2019-03-21T08:16:34.391Z,48.40
2019-03-21T08:21:54.351Z,46.50
2019-03-21T08:24:34.423Z,46.00
2019-03-21T08:27:14.486Z,45.40
2019-03-21T08:32:34.553Z,44.10
2019-03-21T08:35:14.532Z,43.90
2019-03-21T08:37:54.857Z,42.40
2019-03-21T08:40:34.819Z,42.20
2019-03-21T08:43:14.742Z,42.10
2019-03-21T08:45:54.992Z,41.70
2019-03-21T08:48:35.404Z,40.90
2019-03-21T08:51:16.024Z,40.40
2019-03-21T08:53:55.379Z,39.50
2019-03-21T08:56:35.470Z,38.60
2019-03-21T08:59:15.400Z,37.70
2019-03-21T09:01:55.194Z,37.10
2019-03-21T09:04:35.352Z,36.20
2019-03-21T09:07:15.634Z,36.50
2019-03-21T09:09:55.407Z,35.90
2019-03-21T09:12:35.408Z,36.50
2019-03-21T09:15:15.596Z,34.80
2019-03-21T09:17:55.667Z,34.60
2019-03-21T09:20:35.790Z,33.40
2019-03-21T09:23:15.783Z,33.00
2019-03-21T09:25:55.684Z,32.30
2019-03-21T09:28:35.817Z,32.50
2019-03-21T09:31:15.992Z,31.80
2019-03-21T09:33:55.873Z,30.80
2019-03-21T09:36:34.072Z,30.30
2019-03-21T09:39:20.936Z,29.50
2019-03-21T09:44:40.447Z,29.60
2019-03-21T09:47:21.081Z,29.60
2019-03-21T09:50:01.795Z,28.40
2019-03-21T09:52:41.642Z,30.20
2019-03-21T09:55:21.597Z,29.10
2019-03-21T09:58:01.460Z,29.40
2019-03-21T10:00:41.646Z,29.20
2019-03-21T10:03:21.715Z,28.20
2019-03-21T10:06:01.549Z,28.70
2019-03-21T10:08:29.269Z,28.20
2019-03-21T10:11:36.061Z,26.70
2019-03-21T10:14:16.022Z,28.80
2019-03-21T10:16:55.763Z,30.00
2019-03-21T10:19:36.913Z,30.50
2019-03-21T10:22:17.099Z,29.00
2019-03-21T10:24:57.472Z,29.50
2019-03-21T10:27:36.880Z,29.70
2019-03-21T10:30:16.919Z,30.20
2019-03-21T10:32:56.772Z,29.60
2019-03-21T10:35:36.808Z,28.70
2019-03-21T10:38:16.864Z,29.70
2019-03-21T10:40:56.712Z,28.70
2019-03-21T10:43:36.708Z,29.40
2019-03-21T10:46:16.897Z,29.70
2019-03-21T10:48:58.123Z,30.20
2019-03-21T10:51:38.071Z,30.60
2019-03-21T10:54:18.376Z,29.10
2019-03-21T10:56:58.269Z,29.50
2019-03-21T10:59:37.766Z,30.00
2019-03-21T11:02:17.582Z,29.70
2019-03-21T11:04:57.505Z,30.80
2019-03-21T11:07:37.543Z,30.30
2019-03-21T11:10:17.710Z,29.20
2019-03-21T11:12:57.619Z,30.20
2019-03-21T11:16:06.303Z,29.30
2019-03-21T11:24:50.513Z,32.80
2019-03-21T11:27:30.927Z,28.30
2019-03-21T11:30:15.983Z,28.20
2019-03-21T11:32:53.179Z,27.30
2019-03-21T11:35:33.005Z,28.20
2019-03-21T11:38:13.201Z,28.30
2019-03-21T11:43:42.166Z,28.90
2019-03-21T11:46:22.335Z,28.00
2019-03-21T11:49:02.064Z,28.40
2019-03-21T11:51:42.018Z,29.00
2019-03-21T11:54:22.030Z,27.70
2019-03-21T11:57:01.932Z,27.90
2019-03-21T11:59:51.655Z,26.70
2019-03-21T12:02:27.404Z,28.10
2019-03-21T12:05:05.005Z,26.90
2019-03-21T12:07:45.211Z,27.40
2019-03-21T12:10:25.300Z,26.80
2019-03-21T12:13:05.496Z,27.30
2019-03-21T12:15:45.438Z,28.30
2019-03-21T12:18:25.032Z,28.20
2019-03-21T12:21:04.849Z,29.20
2019-03-21T12:23:45.188Z,29.20
2019-03-21T12:26:25.351Z,28.80
2019-03-21T12:29:05.620Z,28.60
2019-03-21T12:31:44.227Z,28.40
2019-03-21T12:34:31.108Z,29.20
2019-03-21T12:37:11.367Z,29.80
2019-03-21T12:39:54.369Z,29.30
2019-03-21T12:42:34.195Z,28.80
2019-03-21T12:45:14.120Z,29.60
2019-03-21T12:47:54.314Z,29.20
2019-03-21T12:50:34.578Z,29.60
2019-03-21T12:53:14.426Z,30.60
2019-03-21T12:55:54.669Z,31.00
2019-03-21T12:58:34.973Z,30.40
2019-03-21T13:01:14.647Z,29.00
2019-03-21T13:03:55.913Z,29.10
2019-03-21T13:06:35.725Z,27.20
2019-03-21T13:09:16.947Z,27.50
2019-03-21T13:11:56.620Z,27.30
2019-03-21T13:14:36.567Z,26.30
2019-03-21T13:17:16.617Z,25.50
2019-03-21T13:19:56.651Z,25.10
2019-03-21T13:22:36.525Z,23.80
2019-03-21T13:25:16.596Z,25.30
2019-03-21T13:27:56.559Z,25.70
2019-03-21T13:30:37.344Z,24.60
2019-03-21T13:33:17.798Z,24.10
2019-03-21T13:35:57.739Z,24.80
2019-03-21T13:38:37.531Z,24.60
2019-03-21T13:41:17.607Z,24.00
2019-03-21T13:43:59.032Z,24.40
2019-03-21T13:46:38.682Z,24.20
2019-03-21T13:49:18.525Z,24.30
2019-03-21T13:51:58.741Z,25.80
2019-03-21T13:54:38.483Z,25.60
2019-03-21T14:00:04.117Z,26.90
2019-03-21T14:02:44.071Z,27.70
2019-03-21T14:05:24.054Z,27.30
2019-03-21T14:10:49.972Z,24.90
2019-03-21T14:13:29.799Z,25.50
2019-03-21T14:16:10.168Z,28.30
2019-03-21T14:18:51.343Z,27.60
2019-03-21T14:21:31.045Z,27.30
2019-03-21T14:24:11.304Z,27.00
2019-03-21T14:26:51.135Z,27.00
2019-03-21T14:29:31.238Z,27.20
2019-03-21T14:32:11.829Z,26.40
2019-03-21T14:34:51.204Z,28.70
2019-03-21T14:37:34.922Z,27.90
2019-03-21T14:40:14.261Z,26.30
2019-03-21T14:42:54.784Z,27.40
2019-03-21T14:45:34.411Z,26.60
2019-03-21T14:48:14.248Z,25.80
2019-03-21T14:50:54.338Z,26.70
2019-03-21T14:53:34.520Z,26.20
2019-03-21T14:56:14.157Z,26.20
2019-03-21T14:58:54.105Z,26.10
2019-03-21T15:01:34.196Z,26.30
2019-03-21T15:04:14.562Z,26.80
2019-03-21T15:06:55.458Z,26.50
2019-03-21T15:09:35.746Z,27.20
2019-03-21T15:12:15.421Z,27.50
2019-03-21T15:14:55.702Z,28.60
2019-03-21T15:17:35.693Z,29.30
2019-03-21T15:20:15.828Z,29.30
2019-03-21T15:22:57.144Z,29.70
2019-03-21T15:25:36.863Z,29.40
2019-03-21T15:28:16.773Z,30.90
2019-03-21T15:30:56.608Z,30.60
2019-03-21T15:33:36.697Z,30.10
2019-03-21T15:36:16.859Z,30.20
2019-03-21T15:38:56.434Z,29.10
2019-03-21T15:41:36.770Z,28.60
2019-03-21T15:44:16.471Z,29.80
2019-03-21T15:46:56.912Z,30.30
2019-03-21T15:49:36.567Z,30.90
2019-03-21T15:52:16.936Z,31.70
2019-03-21T15:54:56.993Z,31.70
2019-03-21T15:57:37.462Z,32.10
2019-03-21T16:00:17.920Z,32.20
2019-03-21T16:02:57.847Z,33.10
2019-03-21T16:05:37.978Z,32.70
2019-03-21T16:08:17.912Z,33.40
2019-03-21T16:10:58.290Z,34.30
2019-03-21T16:13:38.285Z,34.00
2019-03-21T16:16:17.615Z,34.20
2019-03-21T16:18:45.273Z,33.80
2019-03-21T16:21:32.303Z,34.00
2019-03-21T16:24:12.659Z,33.40
2019-03-21T16:26:53.432Z,33.70
2019-03-21T16:29:35.918Z,34.80
2019-03-21T16:32:15.753Z,36.00
2019-03-21T16:34:55.704Z,36.00
2019-03-21T16:37:35.581Z,36.40
2019-03-21T16:40:15.844Z,36.80
2019-03-21T16:42:55.854Z,37.00
2019-03-21T16:45:36.279Z,37.10
2019-03-21T16:48:16.430Z,37.30
2019-03-21T16:50:56.656Z,37.60
2019-03-21T16:53:36.573Z,38.50
2019-03-21T16:56:16.891Z,39.50
2019-03-21T17:01:45.688Z,40.70
2019-03-21T17:04:25.669Z,41.40
2019-03-21T17:07:05.655Z,42.30
2019-03-21T17:09:49.470Z,42.40
2019-03-21T17:12:29.799Z,43.40
2019-03-21T17:15:09.923Z,44.10
2019-03-21T17:17:50.394Z,45.10
2019-03-21T17:20:30.052Z,45.40
2019-03-21T17:23:10.120Z,46.20
2019-03-21T17:25:50.402Z,47.10
2019-03-21T17:28:30.706Z,47.90
2019-03-21T17:31:11.306Z,48.70
2019-03-21T17:33:51.124Z,49.40
2019-03-21T17:36:30.736Z,50.00
2019-03-21T17:39:10.103Z,50.60
2019-03-21T17:41:49.566Z,50.90
2019-03-21T17:44:29.723Z,51.80
2019-03-21T17:47:09.929Z,52.20
2019-03-21T17:49:50.345Z,52.60
2019-03-21T17:52:30.328Z,53.10
2019-03-21T17:55:11.286Z,53.30
2019-03-21T17:57:51.622Z,54.20
2019-03-21T18:00:32.733Z,54.90
2019-03-21T18:03:12.717Z,55.30
2019-03-21T18:06:13.546Z,55.50
2019-03-21T18:12:27.536Z,56.70
2019-03-21T18:15:07.814Z,57.50
2019-03-21T18:17:47.647Z,58.10
2019-03-21T18:20:27.132Z,58.30
2019-03-21T18:23:05.394Z,58.60
2019-03-21T18:31:59.806Z,59.40
2019-03-21T18:34:40.174Z,59.70
2019-03-21T18:37:19.894Z,60.20
2019-03-21T18:39:59.928Z,60.70
2019-03-21T18:42:39.979Z,60.90
2019-03-21T18:45:19.789Z,61.00
2019-03-21T18:48:00.992Z,61.20
2019-03-21T18:50:41.113Z,61.60
2019-03-21T18:53:20.587Z,62.00
2019-03-21T18:56:01.067Z,62.30
2019-03-21T18:58:40.772Z,63.00
2019-03-21T19:01:21.356Z,62.90
2019-03-21T19:04:01.152Z,63.50
2019-03-21T19:06:41.066Z,63.80
2019-03-21T19:09:21.285Z,63.70
2019-03-21T19:12:01.181Z,64.50
2019-03-21T19:14:40.444Z,65.20
2019-03-21T19:17:20.027Z,66.50
2019-03-21T19:19:59.920Z,67.60
2019-03-21T19:22:40.263Z,68.00
2019-03-21T19:25:20.287Z,68.90
2019-03-21T19:28:00.358Z,69.20
2019-03-21T19:30:40.501Z,69.40
2019-03-21T19:33:20.320Z,69.70
2019-03-21T19:36:00.424Z,69.90
2019-03-21T19:38:40.479Z,70.40
2019-03-21T19:41:20.868Z,70.80
2019-03-21T19:44:01.037Z,71.00
2019-03-21T19:46:41.227Z,71.30
2019-03-21T19:49:21.202Z,70.90
2019-03-21T19:52:01.478Z,71.20
2019-03-21T19:54:40.901Z,71.10
2019-03-21T19:57:22.586Z,71.40
2019-03-21T20:00:02.969Z,71.00
2019-03-21T20:02:43.138Z,70.90
2019-03-21T20:05:23.025Z,70.70
2019-03-21T20:08:03.411Z,70.60
2019-03-21T20:10:43.234Z,70.70
2019-03-21T20:13:23.247Z,70.70
2019-03-21T20:16:03.238Z,71.00
2019-03-21T20:18:43.239Z,71.20
2019-03-21T20:21:24.451Z,71.80
2019-03-21T20:24:04.755Z,72.00
2019-03-21T20:26:44.795Z,72.40
2019-03-21T20:29:24.802Z,72.30
2019-03-21T20:32:05.230Z,72.30
2019-03-21T20:34:46.124Z,72.40
2019-03-21T20:37:26.767Z,72.60
2019-03-21T20:40:06.203Z,72.80
2019-03-21T20:42:46.681Z,72.90
2019-03-21T20:45:26.693Z,73.50
2019-03-21T20:48:06.541Z,73.70
2019-03-21T20:50:46.571Z,74.00
2019-03-21T20:53:26.858Z,74.00
2019-03-21T20:56:07.181Z,74.20
2019-03-21T20:58:46.890Z,74.10
2019-03-21T21:01:27.976Z,74.10
2019-03-21T21:04:08.153Z,74.30
2019-03-21T21:06:47.865Z,74.80
2019-03-21T21:09:27.657Z,75.00
2019-03-21T21:12:08.146Z,75.20
2019-03-21T21:14:48.170Z,75.20
2019-03-21T21:17:31.684Z,75.40
2019-03-21T21:22:52.112Z,75.70
2019-03-21T21:25:19.591Z,75.80
2019-03-21T21:27:59.239Z,76.90
2019-03-21T21:30:39.340Z,76.90
2019-03-21T21:33:19.276Z,77.20
2019-03-21T21:35:59.397Z,77.30
2019-03-21T21:38:39.485Z,77.60
2019-03-21T21:41:19.610Z,77.40
2019-03-21T21:44:00.859Z,77.40
2019-03-21T21:46:40.783Z,77.80
2019-03-21T21:49:20.462Z,79.10
2019-03-21T21:52:00.454Z,79.70
2019-03-21T21:54:40.778Z,79.60
2019-03-21T21:57:20.835Z,79.90
2019-03-21T22:00:00.695Z,80.00
2019-03-21T22:02:40.752Z,80.20
2019-03-21T22:05:20.934Z,80.10
2019-03-21T22:08:01.419Z,80.50
2019-03-21T22:10:41.367Z,80.40
2019-03-21T22:13:21.444Z,80.30
2019-03-21T22:16:01.578Z,79.90
2019-03-21T22:18:41.523Z,79.60
2019-03-21T22:21:21.529Z,79.30
2019-03-21T22:24:01.822Z,79.30
2019-03-21T22:26:41.715Z,79.30
2019-03-21T22:29:21.700Z,79.40
2019-03-21T22:32:01.775Z,80.50
2019-03-21T22:34:41.666Z,80.70
2019-03-21T22:37:21.923Z,81.30
2019-03-21T22:40:01.974Z,81.90
2019-03-21T22:42:41.793Z,82.30
2019-03-21T22:45:24.213Z,82.60
2019-03-21T22:48:04.355Z,82.70
2019-03-21T22:50:44.199Z,82.60
2019-03-21T22:53:24.167Z,82.80
2019-03-21T22:56:04.264Z,82.80
2019-03-21T22:58:44.633Z,82.70
2019-03-21T23:01:24.666Z,82.60
2019-03-21T23:04:04.584Z,82.70
2019-03-21T23:06:44.472Z,82.70
2019-03-21T23:09:24.212Z,82.90
2019-03-21T23:12:04.154Z,83.10
2019-03-21T23:14:44.138Z,83.10
2019-03-21T23:17:24.378Z,83.10
2019-03-21T23:20:04.299Z,83.00
2019-03-21T23:22:44.421Z,83.50
2019-03-21T23:25:26.754Z,83.60
2019-03-21T23:28:06.770Z,83.80
2019-03-21T23:30:46.487Z,84.20
2019-03-21T23:33:26.156Z,84.20
2019-03-21T23:36:06.420Z,84.00
2019-03-21T23:41:27.736Z,83.90
2019-03-21T23:44:07.720Z,84.20
2019-03-21T23:46:47.723Z,83.80
2019-03-21T23:49:27.874Z,84.80
2019-03-21T23:52:07.693Z,85.30
2019-03-21T23:54:55.055Z,85.60
2019-03-21T23:57:41.968Z,85.60
